Details From LPMA - Madeira
To GCHI - Hierro
Flight Number -
Tags generated
Created
Modified
Stats Distance 327 nm / 606 km
Max Altitude 29,900 ft / 9,114 m
Waypoints 5
Social Downloads 3
Likes 0
Share VATSIM

Download

Looking for another format? Having issues loading an existing format? Contact us
Advertisement - Login to hide

Notes

Basic altitude profile: - Ascent Rate: 2500ft/min - Ascent Speed: 250kts - Cruise Altitude: 35000ft - Cruise Speed: 420kts - Descent Rate: 1500ft/min - Descent Speed: 250kts Options: - Use NATs: yes - Use PACOTS: yes - Use low airways: yes - Use high airways: yes

Route

LPMA ORTIS UN728 BRICK N866 GOMER GCHI

ID Type Via Altitude Latitude Longitude Leg Dist Tot Dist Heading (true) Name
O LPMA APT - 0 ft / 0 m 32.69770˚ -16.77445˚ - 0 nm - Madeira
ORTIS FIX - 27,900 ft / 8,504 m 31.40696˚ -16.55691˚ 78 nm 78 nm 172° / 172° -
BRICK FIX UN728 (AWY-HI) 29,900 ft / 9,114 m 29.59137˚ -16.37289˚ 109 nm 187 nm 175° / 175° -
GOMER FIX N866 (AWY-LO) 8,500 ft / 2,591 m 28.00000˚ -17.33333˚ 108 nm 295 nm 208° / 208° -
O GCHI APT - 0 ft / 0 m 27.81485˚ -17.88705˚ 31 nm 327 nm 249° / 249° Hierro

Altitude Profile

Advertisement - Login to hide

Weather


0- 5 10 15 20 25 30 35+ Temperature / ° C

Clouds and Precipitation
Forecast for 2017-12-17 00:00 UTC. Updated 2 hours ago

Ground ~20,000 ft ~40,000 ft Winds

LPMA

Details ICAO LPMA (FNC)
Name Madeira
Region Portugal
Timezone Atlantic/Madeira (UTC+0.0)
Stats Elevation 192 ft / 59 m (AMSL)
Location 32.697704° -16.774449°
Runways 1
Magnetic Variation 4.981° W

METAR

LPMA 162300Z 01011KT 9999 SCT015 17/11 Q1026

Decode

TAF

TAF LPMA 161700Z 1618/1718 03015KT 5000 -RADZ BR BKN013 BECMG 1618/1620 9999 NSW SCT015 BKN030 PROB40 TEMPO 1618/1718 04018G28KT

Decode

Departure Runways

ID Width Length Bearing (true) Bearing (mag) Surface Threshold Offset Overrun Length
05 141 ft / 43 m 8,683 ft / 2,647 m 42.98° 47.96° Asphalt 472 ft / 144 m 0 ft / 0 m
23 141 ft / 43 m 8,683 ft / 2,647 m 222.99° 227.97° Asphalt 466 ft / 142 m 0 ft / 0 m

GCHI

Details ICAO GCHI (VDE)
Name Hierro
Region Canary Islands
Timezone Atlantic/Canary (UTC+0.0)
Stats Elevation 337 ft / 103 m (AMSL)
Location 27.814848° -17.887052°
Runways 1
Magnetic Variation 5.628° W

METAR

GCHI 162300Z AUTO 36013KT 9999 BKN016/// BKN039/// 20/17 Q1024

Decode

TAF

TAF GCHI 162000Z 1621/1721 01014KT 9999 SCT025 TX21/1714Z TN18/1706Z

Decode

Destination Runways

ID Width Length Bearing (true) Bearing (mag) Surface Threshold Offset Overrun Length
16 98 ft / 30 m 4,110 ft / 1,253 m 152.71° 158.34° Asphalt 0 ft / 0 m 112 ft / 34 m
34 98 ft / 30 m 4,110 ft / 1,253 m 332.71° 338.34° Asphalt 0 ft / 0 m 105 ft / 32 m

Popular Alternatives